sensor_id;sensor_type;location;lat;lon;timestamp;temperature;humidity
23495;DHT22;26107;50.832;2.950;2024-01-15T00:00:57;3.50;99.90
23495;DHT22;26107;50.832;2.950;2024-01-15T00:16:00;3.60;99.90
23495;DHT22;26107;50.832;2.950;2024-01-15T00:31:01;3.50;99.90
23495;DHT22;26107;50.832;2.950;2024-01-15T00:46:02;3.70;99.90
23495;DHT22;26107;50.832;2.950;2024-01-15T01:01:03;3.70;99.90
23495;DHT22;26107;50.832;2.950;2024-01-15T01:16:04;3.50;99.90
23495;DHT22;26107;50.832;2.950;2024-01-15T01:31:05;3.70;99.90
23495;DHT22;26107;50.832;2.950;2024-01-15T01:46:05;3.60;99.90
23495;DHT22;26107;50.832;2.950;2024-01-15T02:01:06;3.40;99.90
23495;DHT22;26107;50.832;2.950;2024-01-15T02:16:09;3.20;99.90
23495;DHT22;26107;50.832;2.950;2024-01-15T02:31:10;3.50;99.90
23495;DHT22;26107;50.832;2.950;2024-01-15T02:46:11;3.50;99.90
23495;DHT22;26107;50.832;2.950;2024-01-15T03:01:13;3.70;99.90
23495;DHT22;26107;50.832;2.950;2024-01-15T03:16:15;3.30;99.90
23495;DHT22;26107;50.832;2.950;2024-01-15T03:31:15;3.60;99.90
23495;DHT22;26107;50.832;2.950;2024-01-15T03:46:18;3.60;99.90
23495;DHT22;26107;50.832;2.950;2024-01-15T04:01:18;3.30;99.90
23495;DHT22;26107;50.832;2.950;2024-01-15T04:16:19;3.10;99.90
23495;DHT22;26107;50.832;2.950;2024-01-15T04:31:23;3.30;99.90
23495;DHT22;26107;50.832;2.950;2024-01-15T04:46:24;3.10;99.90
23495;DHT22;26107;50.832;2.950;2024-01-15T05:01:25;3.10;99.90
23495;DHT22;26107;50.832;2.950;2024-01-15T05:16:25;3.20;99.90
23495;DHT22;26107;50.832;2.950;2024-01-15T05:31:28;3.10;99.90
23495;DHT22;26107;50.832;2.950;2024-01-15T05:46:29;3.20;99.90
23495;DHT22;26107;50.832;2.950;2024-01-15T06:01:32;3.20;99.90
23495;DHT22;26107;50.832;2.950;2024-01-15T06:16:32;3.40;99.90
23495;DHT22;26107;50.832;2.950;2024-01-15T06:31:33;3.30;99.90
23495;DHT22;26107;50.832;2.950;2024-01-15T06:46:34;3.00;99.90
23495;DHT22;26107;50.832;2.950;2024-01-15T07:01:37;2.80;99.90
23495;DHT22;26107;50.832;2.950;2024-01-15T07:16:38;2.70;99.90
23495;DHT22;26107;50.832;2.950;2024-01-15T07:31:39;2.60;99.90
23495;DHT22;26107;50.832;2.950;2024-01-15T07:46:48;2.60;99.90
23495;DHT22;26107;50.832;2.950;2024-01-15T08:01:51;2.50;99.90
23495;DHT22;26107;50.832;2.950;2024-01-15T08:16:52;2.60;99.90
23495;DHT22;26107;50.832;2.950;2024-01-15T08:31:52;2.70;99.90
23495;DHT22;26107;50.832;2.950;2024-01-15T08:46:53;2.60;99.90
23495;DHT22;26107;50.832;2.950;2024-01-15T09:01:54;2.60;99.90
23495;DHT22;26107;50.832;2.950;2024-01-15T09:16:57;2.40;99.90
23495;DHT22;26107;50.832;2.950;2024-01-15T09:31:58;2.70;99.90
23495;DHT22;26107;50.832;2.950;2024-01-15T09:46:59;3.00;99.90
23495;DHT22;26107;50.832;2.950;2024-01-15T10:02:00;2.80;99.90
23495;DHT22;26107;50.832;2.950;2024-01-15T10:17:12;3.20;99.90
23495;DHT22;26107;50.832;2.950;2024-01-15T10:32:13;3.20;99.90
23495;DHT22;26107;50.832;2.950;2024-01-15T10:47:14;3.60;99.90
23495;DHT22;26107;50.832;2.950;2024-01-15T11:02:18;3.90;99.90
23495;DHT22;26107;50.832;2.950;2024-01-15T11:17:19;3.30;99.90
23495;DHT22;26107;50.832;2.950;2024-01-15T11:32:33;3.80;99.90
23495;DHT22;26107;50.832;2.950;2024-01-15T12:02:58;3.60;99.90
23495;DHT22;26107;50.832;2.950;2024-01-15T12:18:02;3.80;99.90
23495;DHT22;26107;50.832;2.950;2024-01-15T12:33:04;4.30;99.90
23495;DHT22;26107;50.832;2.950;2024-01-15T12:48:08;4.50;99.90
23495;DHT22;26107;50.832;2.950;2024-01-15T13:03:09;3.80;99.90
23495;DHT22;26107;50.832;2.950;2024-01-15T13:18:10;3.70;99.90
23495;DHT22;26107;50.832;2.950;2024-01-15T13:33:10;3.60;99.90
23495;DHT22;26107;50.832;2.950;2024-01-15T14:03:52;3.70;99.90
23495;DHT22;26107;50.832;2.950;2024-01-15T14:18:55;4.20;99.90
23495;DHT22;26107;50.832;2.950;2024-01-15T14:33:56;4.30;99.90
23495;DHT22;26107;50.832;2.950;2024-01-15T14:48:57;4.30;99.90
23495;DHT22;26107;50.832;2.950;2024-01-15T15:04:00;4.90;99.90
23495;DHT22;26107;50.832;2.950;2024-01-15T15:19:03;4.00;99.90
23495;DHT22;26107;50.832;2.950;2024-01-15T15:34:03;3.90;99.90
23495;DHT22;26107;50.832;2.950;2024-01-15T15:49:04;5.00;99.90
23495;DHT22;26107;50.832;2.950;2024-01-15T16:04:09;4.20;99.90
23495;DHT22;26107;50.832;2.950;2024-01-15T16:19:10;3.70;99.90
23495;DHT22;26107;50.832;2.950;2024-01-15T16:34:10;3.60;99.90
23495;DHT22;26107;50.832;2.950;2024-01-15T16:49:11;3.50;99.90
23495;DHT22;26107;50.832;2.950;2024-01-15T17:04:12;3.30;99.90
23495;DHT22;26107;50.832;2.950;2024-01-15T17:19:12;3.20;99.90
23495;DHT22;26107;50.832;2.950;2024-01-15T17:34:15;3.20;99.90
23495;DHT22;26107;50.832;2.950;2024-01-15T17:49:16;3.20;99.90
23495;DHT22;26107;50.832;2.950;2024-01-15T18:04:17;2.90;99.90
23495;DHT22;26107;50.832;2.950;2024-01-15T18:19:21;3.10;99.90
23495;DHT22;26107;50.832;2.950;2024-01-15T18:34:21;2.80;99.90
23495;DHT22;26107;50.832;2.950;2024-01-15T18:49:22;2.80;99.90
23495;DHT22;26107;50.832;2.950;2024-01-15T19:04:23;2.50;99.90
23495;DHT22;26107;50.832;2.950;2024-01-15T19:19:26;2.60;99.90
23495;DHT22;26107;50.832;2.950;2024-01-15T19:34:29;2.50;99.90
23495;DHT22;26107;50.832;2.950;2024-01-15T19:49:35;2.50;99.90
23495;DHT22;26107;50.832;2.950;2024-01-15T20:04:38;2.40;99.90
23495;DHT22;26107;50.832;2.950;2024-01-15T20:19:38;2.10;99.90
23495;DHT22;26107;50.832;2.950;2024-01-15T20:34:39;2.00;99.90
23495;DHT22;26107;50.832;2.950;2024-01-15T20:49:40;1.90;99.90
23495;DHT22;26107;50.832;2.950;2024-01-15T21:04:41;1.90;99.90
23495;DHT22;26107;50.832;2.950;2024-01-15T21:19:41;1.90;99.90
23495;DHT22;26107;50.832;2.950;2024-01-15T21:34:44;1.50;99.90
23495;DHT22;26107;50.832;2.950;2024-01-15T21:49:45;1.50;99.90
23495;DHT22;26107;50.832;2.950;2024-01-15T22:04:46;1.20;99.90
23495;DHT22;26107;50.832;2.950;2024-01-15T22:19:49;1.50;99.90
23495;DHT22;26107;50.832;2.950;2024-01-15T22:34:50;1.30;99.90
23495;DHT22;26107;50.832;2.950;2024-01-15T22:49:52;1.40;99.90
23495;DHT22;26107;50.832;2.950;2024-01-15T23:04:53;1.40;99.90
23495;DHT22;26107;50.832;2.950;2024-01-15T23:19:54;1.10;99.90
23495;DHT22;26107;50.832;2.950;2024-01-15T23:34:57;1.00;99.90
23495;DHT22;26107;50.832;2.950;2024-01-15T23:50:00;1.00;99.90
